sensor_id;sensor_type;location;lat;lon;timestamp;P1;durP1;ratioP1;P2;durP2;ratioP2
16407;SDS011;8313;49.894;8.084;2023-09-30T00:00:44;4.53;;;4.13;;
16407;SDS011;8313;49.894;8.084;2023-09-30T00:03:10;6.97;;;4.33;;
16407;SDS011;8313;49.894;8.084;2023-09-30T00:05:36;5.07;;;4.57;;
16407;SDS011;8313;49.894;8.084;2023-09-30T00:08:03;6.27;;;4.10;;
16407;SDS011;8313;49.894;8.084;2023-09-30T00:10:32;5.20;;;4.70;;
16407;SDS011;8313;49.894;8.084;2023-09-30T00:12:57;9.33;;;4.30;;
16407;SDS011;8313;49.894;8.084;2023-09-30T00:15:24;8.63;;;5.30;;
16407;SDS011;8313;49.894;8.084;2023-09-30T00:17:49;7.47;;;4.83;;
16407;SDS011;8313;49.894;8.084;2023-09-30T00:20:15;5.03;;;4.57;;
16407;SDS011;8313;49.894;8.084;2023-09-30T00:22:41;5.03;;;3.97;;
16407;SDS011;8313;49.894;8.084;2023-09-30T00:25:07;7.57;;;4.10;;
16407;SDS011;8313;49.894;8.084;2023-09-30T00:27:33;7.17;;;4.50;;
16407;SDS011;8313;49.894;8.084;2023-09-30T00:29:58;4.60;;;4.20;;
16407;SDS011;8313;49.894;8.084;2023-09-30T00:32:24;7.30;;;6.03;;
16407;SDS011;8313;49.894;8.084;2023-09-30T00:34:50;4.30;;;3.90;;
16407;SDS011;8313;49.894;8.084;2023-09-30T00:37:17;5.57;;;3.80;;
16407;SDS011;8313;49.894;8.084;2023-09-30T00:39:43;8.30;;;4.30;;
16407;SDS011;8313;49.894;8.084;2023-09-30T00:42:10;7.33;;;4.70;;
16407;SDS011;8313;49.894;8.084;2023-09-30T00:44:36;7.30;;;4.57;;
16407;SDS011;8313;49.894;8.084;2023-09-30T00:47:01;8.23;;;5.20;;
16407;SDS011;8313;49.894;8.084;2023-09-30T00:49:28;4.73;;;4.23;;
16407;SDS011;8313;49.894;8.084;2023-09-30T00:51:54;5.90;;;4.70;;
16407;SDS011;8313;49.894;8.084;2023-09-30T00:54:21;13.30;;;5.60;;
16407;SDS011;8313;49.894;8.084;2023-09-30T00:56:50;5.37;;;4.83;;
16407;SDS011;8313;49.894;8.084;2023-09-30T00:59:17;6.17;;;4.23;;
16407;SDS011;8313;49.894;8.084;2023-09-30T01:01:44;5.83;;;4.97;;
16407;SDS011;8313;49.894;8.084;2023-09-30T01:04:11;5.43;;;4.90;;
16407;SDS011;8313;49.894;8.084;2023-09-30T01:06:37;7.33;;;5.00;;
16407;SDS011;8313;49.894;8.084;2023-09-30T01:09:03;7.87;;;5.10;;
16407;SDS011;8313;49.894;8.084;2023-09-30T01:11:29;5.13;;;4.47;;
16407;SDS011;8313;49.894;8.084;2023-09-30T01:13:55;6.37;;;4.63;;
16407;SDS011;8313;49.894;8.084;2023-09-30T01:16:22;5.90;;;4.43;;
16407;SDS011;8313;49.894;8.084;2023-09-30T01:18:48;5.80;;;4.63;;
16407;SDS011;8313;49.894;8.084;2023-09-30T01:21:15;7.10;;;4.27;;
16407;SDS011;8313;49.894;8.084;2023-09-30T01:23:41;7.47;;;5.27;;
16407;SDS011;8313;49.894;8.084;2023-09-30T01:26:10;8.97;;;5.60;;
16407;SDS011;8313;49.894;8.084;2023-09-30T01:28:40;6.40;;;5.30;;
16407;SDS011;8313;49.894;8.084;2023-09-30T01:31:05;7.47;;;5.17;;
16407;SDS011;8313;49.894;8.084;2023-09-30T01:33:31;8.47;;;5.40;;
16407;SDS011;8313;49.894;8.084;2023-09-30T01:35:59;7.13;;;4.70;;
16407;SDS011;8313;49.894;8.084;2023-09-30T01:38:25;6.10;;;5.33;;
16407;SDS011;8313;49.894;8.084;2023-09-30T01:40:51;9.43;;;4.83;;
16407;SDS011;8313;49.894;8.084;2023-09-30T01:43:19;6.33;;;4.60;;
16407;SDS011;8313;49.894;8.084;2023-09-30T01:45:45;5.63;;;4.33;;
16407;SDS011;8313;49.894;8.084;2023-09-30T01:48:11;5.70;;;4.53;;
16407;SDS011;8313;49.894;8.084;2023-09-30T01:50:37;9.50;;;5.67;;
16407;SDS011;8313;49.894;8.084;2023-09-30T01:53:03;11.03;;;5.70;;
16407;SDS011;8313;49.894;8.084;2023-09-30T01:55:31;10.43;;;5.27;;
16407;SDS011;8313;49.894;8.084;2023-09-30T01:58:02;6.23;;;4.60;;
16407;SDS011;8313;49.894;8.084;2023-09-30T02:00:28;8.37;;;5.17;;
16407;SDS011;8313;49.894;8.084;2023-09-30T02:02:57;6.30;;;5.17;;
16407;SDS011;8313;49.894;8.084;2023-09-30T02:05:23;7.60;;;6.40;;
16407;SDS011;8313;49.894;8.084;2023-09-30T02:07:50;7.03;;;5.00;;
16407;SDS011;8313;49.894;8.084;2023-09-30T02:10:16;7.67;;;5.20;;
16407;SDS011;8313;49.894;8.084;2023-09-30T02:12:45;7.87;;;5.30;;
16407;SDS011;8313;49.894;8.084;2023-09-30T02:15:12;6.20;;;4.67;;
16407;SDS011;8313;49.894;8.084;2023-09-30T02:17:38;5.37;;;4.70;;
16407;SDS011;8313;49.894;8.084;2023-09-30T02:20:04;8.23;;;5.30;;
16407;SDS011;8313;49.894;8.084;2023-09-30T02:22:32;8.10;;;5.20;;
16407;SDS011;8313;49.894;8.084;2023-09-30T02:24:58;5.73;;;5.00;;
16407;SDS011;8313;49.894;8.084;2023-09-30T02:27:24;11.33;;;6.63;;
16407;SDS011;8313;49.894;8.084;2023-09-30T02:29:49;9.53;;;5.43;;
16407;SDS011;8313;49.894;8.084;2023-09-30T02:32:16;5.90;;;5.03;;
16407;SDS011;8313;49.894;8.084;2023-09-30T02:34:42;6.50;;;5.63;;
16407;SDS011;8313;49.894;8.084;2023-09-30T02:37:09;8.23;;;4.90;;
16407;SDS011;8313;49.894;8.084;2023-09-30T02:39:35;6.47;;;5.33;;
16407;SDS011;8313;49.894;8.084;2023-09-30T02:42:02;9.63;;;6.00;;
16407;SDS011;8313;49.894;8.084;2023-09-30T02:44:28;9.33;;;5.93;;
16407;SDS011;8313;49.894;8.084;2023-09-30T02:46:54;8.73;;;5.57;;
16407;SDS011;8313;49.894;8.084;2023-09-30T02:49:20;10.80;;;6.13;;
16407;SDS011;8313;49.894;8.084;2023-09-30T02:51:46;8.07;;;5.50;;
16407;SDS011;8313;49.894;8.084;2023-09-30T02:54:12;7.87;;;5.47;;
16407;SDS011;8313;49.894;8.084;2023-09-30T02:56:41;7.53;;;5.50;;
16407;SDS011;8313;49.894;8.084;2023-09-30T02:59:08;9.40;;;5.30;;
16407;SDS011;8313;49.894;8.084;2023-09-30T03:01:33;9.87;;;5.60;;
16407;SDS011;8313;49.894;8.084;2023-09-30T03:03:59;9.37;;;6.37;;
16407;SDS011;8313;49.894;8.084;2023-09-30T03:06:25;7.00;;;5.77;;
16407;SDS011;8313;49.894;8.084;2023-09-30T03:08:51;13.50;;;5.23;;
16407;SDS011;8313;49.894;8.084;2023-09-30T03:11:17;8.30;;;5.33;;
16407;SDS011;8313;49.894;8.084;2023-09-30T03:13:45;11.10;;;6.47;;
16407;SDS011;8313;49.894;8.084;2023-09-30T03:16:11;8.00;;;6.43;;
16407;SDS011;8313;49.894;8.084;2023-09-30T03:18:36;7.73;;;5.40;;
16407;SDS011;8313;49.894;8.084;2023-09-30T03:21:02;11.63;;;5.93;;
16407;SDS011;8313;49.894;8.084;2023-09-30T03:23:37;7.07;;;5.03;;
16407;SDS011;8313;49.894;8.084;2023-09-30T03:26:03;7.30;;;5.30;;
16407;SDS011;8313;49.894;8.084;2023-09-30T03:28:29;7.60;;;5.80;;
16407;SDS011;8313;49.894;8.084;2023-09-30T03:30:55;9.37;;;5.83;;
16407;SDS011;8313;49.894;8.084;2023-09-30T03:33:21;8.60;;;5.30;;
16407;SDS011;8313;49.894;8.084;2023-09-30T03:35:47;9.37;;;5.17;;
16407;SDS011;8313;49.894;8.084;2023-09-30T03:38:13;9.07;;;5.47;;
16407;SDS011;8313;49.894;8.084;2023-09-30T03:40:42;7.33;;;5.53;;
16407;SDS011;8313;49.894;8.084;2023-09-30T03:43:13;8.83;;;5.03;;
16407;SDS011;8313;49.894;8.084;2023-09-30T03:45:39;6.13;;;4.83;;
16407;SDS011;8313;49.894;8.084;2023-09-30T03:48:06;8.13;;;6.30;;
16407;SDS011;8313;49.894;8.084;2023-09-30T03:50:32;6.80;;;5.23;;
16407;SDS011;8313;49.894;8.084;2023-09-30T03:53:02;7.60;;;5.70;;
16407;SDS011;8313;49.894;8.084;2023-09-30T03:55:28;7.03;;;5.60;;
16407;SDS011;8313;49.894;8.084;2023-09-30T03:57:55;13.63;;;6.40;;
16407;SDS011;8313;49.894;8.084;2023-09-30T04:00:21;8.37;;;6.13;;
16407;SDS011;8313;49.894;8.084;2023-09-30T04:02:47;7.97;;;5.87;;
16407;SDS011;8313;49.894;8.084;2023-09-30T04:05:20;7.27;;;5.53;;
16407;SDS011;8313;49.894;8.084;2023-09-30T04:07:51;11.00;;;5.47;;
16407;SDS011;8313;49.894;8.084;2023-09-30T04:10:17;8.33;;;4.87;;
16407;SDS011;8313;49.894;8.084;2023-09-30T04:12:43;10.70;;;5.00;;
16407;SDS011;8313;49.894;8.084;2023-09-30T04:15:08;10.10;;;5.03;;
16407;SDS011;8313;49.894;8.084;2023-09-30T04:17:37;10.10;;;4.73;;
16407;SDS011;8313;49.894;8.084;2023-09-30T04:20:04;10.60;;;5.80;;
16407;SDS011;8313;49.894;8.084;2023-09-30T04:22:33;8.27;;;5.43;;
16407;SDS011;8313;49.894;8.084;2023-09-30T04:25:00;7.23;;;5.87;;
16407;SDS011;8313;49.894;8.084;2023-09-30T04:27:26;7.50;;;5.30;;
16407;SDS011;8313;49.894;8.084;2023-09-30T04:29:52;9.20;;;5.73;;
16407;SDS011;8313;49.894;8.084;2023-09-30T04:32:18;6.60;;;5.73;;
16407;SDS011;8313;49.894;8.084;2023-09-30T04:34:44;8.77;;;5.43;;
16407;SDS011;8313;49.894;8.084;2023-09-30T04:37:11;7.57;;;5.70;;
16407;SDS011;8313;49.894;8.084;2023-09-30T04:39:38;9.40;;;5.73;;
16407;SDS011;8313;49.894;8.084;2023-09-30T04:42:04;9.07;;;5.47;;
16407;SDS011;8313;49.894;8.084;2023-09-30T04:44:30;11.77;;;6.50;;
16407;SDS011;8313;49.894;8.084;2023-09-30T04:46:56;12.23;;;5.93;;
16407;SDS011;8313;49.894;8.084;2023-09-30T04:49:22;6.80;;;5.60;;
16407;SDS011;8313;49.894;8.084;2023-09-30T04:51:49;9.20;;;6.10;;
16407;SDS011;8313;49.894;8.084;2023-09-30T04:54:14;6.80;;;5.53;;
16407;SDS011;8313;49.894;8.084;2023-09-30T04:56:40;10.77;;;6.17;;
16407;SDS011;8313;49.894;8.084;2023-09-30T04:59:06;8.90;;;5.60;;
16407;SDS011;8313;49.894;8.084;2023-09-30T05:01:32;8.37;;;5.90;;
16407;SDS011;8313;49.894;8.084;2023-09-30T05:03:57;7.17;;;5.53;;
16407;SDS011;8313;49.894;8.084;2023-09-30T05:06:24;6.60;;;5.47;;
16407;SDS011;8313;49.894;8.084;2023-09-30T05:08:49;7.20;;;5.43;;
16407;SDS011;8313;49.894;8.084;2023-09-30T05:11:15;6.90;;;5.67;;
16407;SDS011;8313;49.894;8.084;2023-09-30T05:13:41;7.53;;;5.63;;
16407;SDS011;8313;49.894;8.084;2023-09-30T05:16:06;12.20;;;6.20;;
16407;SDS011;8313;49.894;8.084;2023-09-30T05:18:32;7.97;;;5.47;;
16407;SDS011;8313;49.894;8.084;2023-09-30T05:20:58;9.63;;;5.77;;
16407;SDS011;8313;49.894;8.084;2023-09-30T05:23:24;10.87;;;5.50;;
16407;SDS011;8313;49.894;8.084;2023-09-30T05:25:50;8.27;;;5.80;;
16407;SDS011;8313;49.894;8.084;2023-09-30T05:28:16;7.80;;;5.03;;
16407;SDS011;8313;49.894;8.084;2023-09-30T05:30:42;7.17;;;5.33;;
16407;SDS011;8313;49.894;8.084;2023-09-30T05:33:08;9.27;;;6.20;;
16407;SDS011;8313;49.894;8.084;2023-09-30T05:35:39;8.10;;;5.60;;
16407;SDS011;8313;49.894;8.084;2023-09-30T05:38:06;14.93;;;6.50;;
16407;SDS011;8313;49.894;8.084;2023-09-30T05:40:32;8.53;;;5.67;;
16407;SDS011;8313;49.894;8.084;2023-09-30T05:42:58;8.63;;;6.47;;
16407;SDS011;8313;49.894;8.084;2023-09-30T05:45:25;9.43;;;5.70;;
16407;SDS011;8313;49.894;8.084;2023-09-30T05:47:52;11.93;;;7.20;;
16407;SDS011;8313;49.894;8.084;2023-09-30T05:50:19;10.20;;;6.93;;
16407;SDS011;8313;49.894;8.084;2023-09-30T05:52:53;11.00;;;7.17;;
16407;SDS011;8313;49.894;8.084;2023-09-30T05:55:20;10.63;;;5.93;;
16407;SDS011;8313;49.894;8.084;2023-09-30T05:57:50;9.50;;;6.10;;
16407;SDS011;8313;49.894;8.084;2023-09-30T06:00:17;10.43;;;6.57;;
16407;SDS011;8313;49.894;8.084;2023-09-30T06:02:59;9.60;;;6.93;;
16407;SDS011;8313;49.894;8.084;2023-09-30T06:05:24;10.40;;;6.60;;
16407;SDS011;8313;49.894;8.084;2023-09-30T06:07:52;7.53;;;6.50;;
16407;SDS011;8313;49.894;8.084;2023-09-30T06:10:19;10.00;;;6.40;;
16407;SDS011;8313;49.894;8.084;2023-09-30T06:12:48;10.30;;;6.70;;
16407;SDS011;8313;49.894;8.084;2023-09-30T06:15:20;10.73;;;6.27;;
16407;SDS011;8313;49.894;8.084;2023-09-30T06:17:47;11.27;;;7.00;;
16407;SDS011;8313;49.894;8.084;2023-09-30T06:20:14;12.23;;;7.00;;
16407;SDS011;8313;49.894;8.084;2023-09-30T06:22:43;8.43;;;6.47;;
16407;SDS011;8313;49.894;8.084;2023-09-30T06:25:10;13.37;;;6.20;;
16407;SDS011;8313;49.894;8.084;2023-09-30T06:27:42;9.30;;;6.23;;
16407;SDS011;8313;49.894;8.084;2023-09-30T06:30:08;10.87;;;6.60;;
16407;SDS011;8313;49.894;8.084;2023-09-30T06:32:34;9.40;;;6.57;;
16407;SDS011;8313;49.894;8.084;2023-09-30T06:35:01;14.83;;;6.53;;
16407;SDS011;8313;49.894;8.084;2023-09-30T06:37:28;10.60;;;5.20;;
16407;SDS011;8313;49.894;8.084;2023-09-30T06:39:55;10.53;;;6.50;;
16407;SDS011;8313;49.894;8.084;2023-09-30T06:42:21;12.97;;;5.07;;
16407;SDS011;8313;49.894;8.084;2023-09-30T06:44:47;9.37;;;5.83;;
16407;SDS011;8313;49.894;8.084;2023-09-30T06:47:12;10.57;;;5.77;;
16407;SDS011;8313;49.894;8.084;2023-09-30T06:49:38;9.53;;;4.27;;
16407;SDS011;8313;49.894;8.084;2023-09-30T06:52:04;8.47;;;5.90;;
16407;SDS011;8313;49.894;8.084;2023-09-30T06:54:31;5.80;;;3.87;;
16407;SDS011;8313;49.894;8.084;2023-09-30T06:56:56;8.73;;;5.53;;
16407;SDS011;8313;49.894;8.084;2023-09-30T06:59:22;7.80;;;4.17;;
16407;SDS011;8313;49.894;8.084;2023-09-30T07:01:50;9.60;;;4.40;;
16407;SDS011;8313;49.894;8.084;2023-09-30T07:04:16;10.37;;;4.47;;
16407;SDS011;8313;49.894;8.084;2023-09-30T07:06:42;9.27;;;4.80;;
16407;SDS011;8313;49.894;8.084;2023-09-30T07:09:07;8.87;;;4.10;;
16407;SDS011;8313;49.894;8.084;2023-09-30T07:11:35;11.97;;;5.10;;
16407;SDS011;8313;49.894;8.084;2023-09-30T07:14:01;11.07;;;4.50;;
16407;SDS011;8313;49.894;8.084;2023-09-30T07:16:27;6.40;;;4.80;;
16407;SDS011;8313;49.894;8.084;2023-09-30T07:18:52;5.77;;;4.30;;
16407;SDS011;8313;49.894;8.084;2023-09-30T07:21:19;9.07;;;5.87;;
16407;SDS011;8313;49.894;8.084;2023-09-30T07:23:44;7.50;;;5.13;;
16407;SDS011;8313;49.894;8.084;2023-09-30T07:26:10;7.13;;;5.27;;
16407;SDS011;8313;49.894;8.084;2023-09-30T07:28:35;9.10;;;4.70;;
16407;SDS011;8313;49.894;8.084;2023-09-30T07:31:02;4.70;;;3.80;;
16407;SDS011;8313;49.894;8.084;2023-09-30T07:33:28;6.50;;;5.40;;
16407;SDS011;8313;49.894;8.084;2023-09-30T07:35:54;9.43;;;4.17;;
16407;SDS011;8313;49.894;8.084;2023-09-30T07:38:21;7.67;;;5.37;;
16407;SDS011;8313;49.894;8.084;2023-09-30T07:40:47;8.20;;;5.07;;
16407;SDS011;8313;49.894;8.084;2023-09-30T07:43:14;5.50;;;4.70;;
16407;SDS011;8313;49.894;8.084;2023-09-30T07:45:40;6.47;;;3.70;;
16407;SDS011;8313;49.894;8.084;2023-09-30T07:48:08;6.40;;;3.93;;
16407;SDS011;8313;49.894;8.084;2023-09-30T07:50:35;7.40;;;5.07;;
16407;SDS011;8313;49.894;8.084;2023-09-30T07:53:01;8.43;;;4.30;;
16407;SDS011;8313;49.894;8.084;2023-09-30T07:55:27;6.40;;;4.77;;
16407;SDS011;8313;49.894;8.084;2023-09-30T07:57:53;6.73;;;4.50;;
16407;SDS011;8313;49.894;8.084;2023-09-30T08:00:19;6.20;;;3.50;;
16407;SDS011;8313;49.894;8.084;2023-09-30T08:02:46;10.53;;;4.40;;
16407;SDS011;8313;49.894;8.084;2023-09-30T08:05:12;12.07;;;4.07;;
16407;SDS011;8313;49.894;8.084;2023-09-30T08:07:38;5.07;;;3.70;;
16407;SDS011;8313;49.894;8.084;2023-09-30T08:10:04;7.70;;;4.40;;
16407;SDS011;8313;49.894;8.084;2023-09-30T08:12:31;5.40;;;3.57;;
16407;SDS011;8313;49.894;8.084;2023-09-30T08:14:58;7.00;;;4.40;;
16407;SDS011;8313;49.894;8.084;2023-09-30T08:17:23;4.43;;;3.37;;
16407;SDS011;8313;49.894;8.084;2023-09-30T08:19:49;4.20;;;3.27;;
16407;SDS011;8313;49.894;8.084;2023-09-30T08:22:14;9.03;;;3.90;;
16407;SDS011;8313;49.894;8.084;2023-09-30T08:24:40;5.93;;;3.47;;
16407;SDS011;8313;49.894;8.084;2023-09-30T08:27:06;5.17;;;3.60;;
16407;SDS011;8313;49.894;8.084;2023-09-30T08:29:35;7.23;;;4.50;;
16407;SDS011;8313;49.894;8.084;2023-09-30T08:32:03;8.50;;;4.67;;
16407;SDS011;8313;49.894;8.084;2023-09-30T08:34:29;10.07;;;3.43;;
16407;SDS011;8313;49.894;8.084;2023-09-30T08:36:55;9.57;;;4.57;;
16407;SDS011;8313;49.894;8.084;2023-09-30T08:39:22;7.13;;;4.20;;
16407;SDS011;8313;49.894;8.084;2023-09-30T08:41:48;7.27;;;4.30;;
16407;SDS011;8313;49.894;8.084;2023-09-30T08:44:15;4.57;;;4.13;;
16407;SDS011;8313;49.894;8.084;2023-09-30T08:46:41;6.40;;;4.27;;
16407;SDS011;8313;49.894;8.084;2023-09-30T08:49:07;4.50;;;3.30;;
16407;SDS011;8313;49.894;8.084;2023-09-30T08:51:34;5.73;;;3.70;;
16407;SDS011;8313;49.894;8.084;2023-09-30T08:54:01;6.83;;;4.40;;
16407;SDS011;8313;49.894;8.084;2023-09-30T08:56:29;6.80;;;4.13;;
16407;SDS011;8313;49.894;8.084;2023-09-30T08:58:58;6.43;;;3.40;;
16407;SDS011;8313;49.894;8.084;2023-09-30T09:01:28;8.23;;;3.73;;
16407;SDS011;8313;49.894;8.084;2023-09-30T09:03:54;5.77;;;3.73;;
16407;SDS011;8313;49.894;8.084;2023-09-30T09:06:21;4.47;;;3.40;;
16407;SDS011;8313;49.894;8.084;2023-09-30T09:08:48;10.73;;;3.67;;
16407;SDS011;8313;49.894;8.084;2023-09-30T09:11:14;5.23;;;3.27;;
16407;SDS011;8313;49.894;8.084;2023-09-30T09:13:49;7.63;;;4.03;;
16407;SDS011;8313;49.894;8.084;2023-09-30T09:16:16;5.20;;;3.47;;
16407;SDS011;8313;49.894;8.084;2023-09-30T09:18:45;10.33;;;3.73;;
16407;SDS011;8313;49.894;8.084;2023-09-30T09:23:48;4.23;;;2.80;;
16407;SDS011;8313;49.894;8.084;2023-09-30T09:26:24;4.30;;;3.20;;
16407;SDS011;8313;49.894;8.084;2023-09-30T09:28:58;4.50;;;3.20;;
16407;SDS011;8313;49.894;8.084;2023-09-30T09:31:29;4.43;;;3.37;;
16407;SDS011;8313;49.894;8.084;2023-09-30T09:33:57;5.00;;;3.37;;
16407;SDS011;8313;49.894;8.084;2023-09-30T09:36:37;3.97;;;3.17;;
16407;SDS011;8313;49.894;8.084;2023-09-30T09:39:08;7.40;;;3.90;;
16407;SDS011;8313;49.894;8.084;2023-09-30T09:41:53;3.47;;;2.80;;
16407;SDS011;8313;49.894;8.084;2023-09-30T09:44:21;6.40;;;3.87;;
16407;SDS011;8313;49.894;8.084;2023-09-30T09:46:48;5.57;;;3.40;;
16407;SDS011;8313;49.894;8.084;2023-09-30T09:49:18;5.63;;;3.40;;
16407;SDS011;8313;49.894;8.084;2023-09-30T09:51:45;5.10;;;3.50;;
16407;SDS011;8313;49.894;8.084;2023-09-30T09:54:12;4.30;;;3.40;;
16407;SDS011;8313;49.894;8.084;2023-09-30T09:56:39;8.30;;;3.73;;
16407;SDS011;8313;49.894;8.084;2023-09-30T09:59:06;4.60;;;3.43;;
16407;SDS011;8313;49.894;8.084;2023-09-30T10:01:35;4.63;;;3.23;;
16407;SDS011;8313;49.894;8.084;2023-09-30T10:04:01;5.57;;;3.90;;
16407;SDS011;8313;49.894;8.084;2023-09-30T10:06:27;4.27;;;3.53;;
16407;SDS011;8313;49.894;8.084;2023-09-30T10:08:53;7.60;;;3.63;;
16407;SDS011;8313;49.894;8.084;2023-09-30T10:11:22;3.80;;;3.30;;
16407;SDS011;8313;49.894;8.084;2023-09-30T10:19:09;5.83;;;4.33;;
16407;SDS011;8313;49.894;8.084;2023-09-30T10:21:36;6.17;;;3.90;;
16407;SDS011;8313;49.894;8.084;2023-09-30T10:29:47;6.23;;;3.30;;
16407;SDS011;8313;49.894;8.084;2023-09-30T10:32:18;4.47;;;2.80;;
16407;SDS011;8313;49.894;8.084;2023-09-30T10:34:47;6.80;;;4.10;;
16407;SDS011;8313;49.894;8.084;2023-09-30T10:37:20;6.60;;;3.73;;
16407;SDS011;8313;49.894;8.084;2023-09-30T10:39:53;5.83;;;3.97;;
16407;SDS011;8313;49.894;8.084;2023-09-30T10:45:08;5.20;;;3.87;;
16407;SDS011;8313;49.894;8.084;2023-09-30T10:53:20;10.17;;;4.27;;
16407;SDS011;8313;49.894;8.084;2023-09-30T10:55:46;6.30;;;4.30;;
16407;SDS011;8313;49.894;8.084;2023-09-30T10:58:19;5.73;;;3.40;;
16407;SDS011;8313;49.894;8.084;2023-09-30T11:00:54;4.80;;;3.97;;
16407;SDS011;8313;49.894;8.084;2023-09-30T11:03:21;6.00;;;3.73;;
16407;SDS011;8313;49.894;8.084;2023-09-30T11:05:50;5.27;;;3.43;;
16407;SDS011;8313;49.894;8.084;2023-09-30T11:08:20;5.93;;;3.60;;
16407;SDS011;8313;49.894;8.084;2023-09-30T11:10:51;12.57;;;4.47;;
16407;SDS011;8313;49.894;8.084;2023-09-30T11:13:20;5.80;;;3.47;;
16407;SDS011;8313;49.894;8.084;2023-09-30T11:15:45;4.83;;;3.83;;
16407;SDS011;8313;49.894;8.084;2023-09-30T11:18:17;4.20;;;3.23;;
16407;SDS011;8313;49.894;8.084;2023-09-30T11:20:43;4.97;;;3.17;;
16407;SDS011;8313;49.894;8.084;2023-09-30T11:23:10;5.83;;;3.70;;
16407;SDS011;8313;49.894;8.084;2023-09-30T11:25:37;4.33;;;3.93;;
16407;SDS011;8313;49.894;8.084;2023-09-30T11:28:14;5.50;;;3.60;;
16407;SDS011;8313;49.894;8.084;2023-09-30T11:31:17;6.60;;;3.80;;
16407;SDS011;8313;49.894;8.084;2023-09-30T11:36:17;7.17;;;3.90;;
16407;SDS011;8313;49.894;8.084;2023-09-30T11:38:49;4.67;;;3.90;;
16407;SDS011;8313;49.894;8.084;2023-09-30T11:41:17;7.07;;;4.27;;
16407;SDS011;8313;49.894;8.084;2023-09-30T11:46:46;7.87;;;3.40;;
16407;SDS011;8313;49.894;8.084;2023-09-30T11:52:09;7.03;;;4.03;;
16407;SDS011;8313;49.894;8.084;2023-09-30T11:57:04;4.63;;;3.67;;
16407;SDS011;8313;49.894;8.084;2023-09-30T11:59:30;6.27;;;3.27;;
16407;SDS011;8313;49.894;8.084;2023-09-30T12:01:56;4.27;;;3.77;;
16407;SDS011;8313;49.894;8.084;2023-09-30T12:04:23;4.97;;;3.93;;
16407;SDS011;8313;49.894;8.084;2023-09-30T12:06:49;4.73;;;3.60;;
16407;SDS011;8313;49.894;8.084;2023-09-30T12:09:15;7.27;;;4.23;;
16407;SDS011;8313;49.894;8.084;2023-09-30T12:11:42;5.33;;;3.87;;
16407;SDS011;8313;49.894;8.084;2023-09-30T12:14:09;6.00;;;3.57;;
16407;SDS011;8313;49.894;8.084;2023-09-30T12:16:36;4.20;;;3.33;;
16407;SDS011;8313;49.894;8.084;2023-09-30T12:19:02;5.03;;;3.63;;
16407;SDS011;8313;49.894;8.084;2023-09-30T12:21:28;6.43;;;4.03;;
16407;SDS011;8313;49.894;8.084;2023-09-30T12:23:54;5.17;;;3.97;;
16407;SDS011;8313;49.894;8.084;2023-09-30T12:26:20;3.80;;;3.50;;
16407;SDS011;8313;49.894;8.084;2023-09-30T12:28:46;6.40;;;3.43;;
16407;SDS011;8313;49.894;8.084;2023-09-30T12:31:12;6.30;;;3.80;;
16407;SDS011;8313;49.894;8.084;2023-09-30T12:33:38;5.10;;;3.73;;
16407;SDS011;8313;49.894;8.084;2023-09-30T12:36:05;7.13;;;3.73;;
16407;SDS011;8313;49.894;8.084;2023-09-30T12:38:32;3.90;;;3.47;;
16407;SDS011;8313;49.894;8.084;2023-09-30T12:40:58;4.10;;;3.67;;
16407;SDS011;8313;49.894;8.084;2023-09-30T12:43:23;5.30;;;3.77;;
16407;SDS011;8313;49.894;8.084;2023-09-30T12:45:50;4.00;;;3.60;;
16407;SDS011;8313;49.894;8.084;2023-09-30T12:48:15;4.17;;;3.77;;
16407;SDS011;8313;49.894;8.084;2023-09-30T12:50:42;6.43;;;3.50;;
16407;SDS011;8313;49.894;8.084;2023-09-30T12:53:11;6.47;;;3.87;;
16407;SDS011;8313;49.894;8.084;2023-09-30T12:55:37;4.20;;;3.70;;
16407;SDS011;8313;49.894;8.084;2023-09-30T12:58:02;5.67;;;3.70;;
16407;SDS011;8313;49.894;8.084;2023-09-30T13:00:30;5.00;;;3.40;;
16407;SDS011;8313;49.894;8.084;2023-09-30T13:02:58;5.80;;;3.37;;
16407;SDS011;8313;49.894;8.084;2023-09-30T13:05:25;8.43;;;4.60;;
16407;SDS011;8313;49.894;8.084;2023-09-30T13:07:51;6.47;;;3.53;;
16407;SDS011;8313;49.894;8.084;2023-09-30T13:10:18;5.53;;;3.47;;
16407;SDS011;8313;49.894;8.084;2023-09-30T13:12:44;6.40;;;4.33;;
16407;SDS011;8313;49.894;8.084;2023-09-30T13:15:10;6.53;;;3.60;;
16407;SDS011;8313;49.894;8.084;2023-09-30T13:17:35;6.80;;;4.20;;
16407;SDS011;8313;49.894;8.084;2023-09-30T13:20:01;3.53;;;3.23;;
16407;SDS011;8313;49.894;8.084;2023-09-30T13:22:30;4.40;;;3.47;;
16407;SDS011;8313;49.894;8.084;2023-09-30T13:24:57;5.93;;;3.40;;
16407;SDS011;8313;49.894;8.084;2023-09-30T13:27:25;5.40;;;3.40;;
16407;SDS011;8313;49.894;8.084;2023-09-30T13:29:51;3.80;;;3.43;;
16407;SDS011;8313;49.894;8.084;2023-09-30T13:32:19;4.70;;;4.00;;
16407;SDS011;8313;49.894;8.084;2023-09-30T13:34:45;6.83;;;3.83;;
16407;SDS011;8313;49.894;8.084;2023-09-30T13:37:11;7.30;;;4.27;;
16407;SDS011;8313;49.894;8.084;2023-09-30T13:39:36;5.83;;;3.70;;
16407;SDS011;8313;49.894;8.084;2023-09-30T13:42:03;4.87;;;3.53;;
16407;SDS011;8313;49.894;8.084;2023-09-30T13:44:28;5.07;;;3.30;;
16407;SDS011;8313;49.894;8.084;2023-09-30T13:46:54;5.97;;;3.57;;
16407;SDS011;8313;49.894;8.084;2023-09-30T13:49:20;7.90;;;3.70;;
16407;SDS011;8313;49.894;8.084;2023-09-30T13:51:46;6.27;;;3.70;;
16407;SDS011;8313;49.894;8.084;2023-09-30T13:54:11;4.10;;;3.30;;
16407;SDS011;8313;49.894;8.084;2023-09-30T13:56:37;5.17;;;4.10;;
16407;SDS011;8313;49.894;8.084;2023-09-30T13:59:03;6.63;;;4.17;;
16407;SDS011;8313;49.894;8.084;2023-09-30T14:01:29;9.77;;;3.50;;
16407;SDS011;8313;49.894;8.084;2023-09-30T14:03:55;4.83;;;3.10;;
16407;SDS011;8313;49.894;8.084;2023-09-30T14:06:22;7.70;;;3.67;;
16407;SDS011;8313;49.894;8.084;2023-09-30T14:08:47;4.43;;;3.90;;
16407;SDS011;8313;49.894;8.084;2023-09-30T14:11:13;9.77;;;4.20;;
16407;SDS011;8313;49.894;8.084;2023-09-30T14:13:39;4.97;;;3.53;;
16407;SDS011;8313;49.894;8.084;2023-09-30T14:16:05;6.00;;;4.00;;
16407;SDS011;8313;49.894;8.084;2023-09-30T14:18:32;4.07;;;2.93;;
16407;SDS011;8313;49.894;8.084;2023-09-30T14:20:58;7.17;;;3.60;;
16407;SDS011;8313;49.894;8.084;2023-09-30T14:23:24;3.90;;;3.37;;
16407;SDS011;8313;49.894;8.084;2023-09-30T14:25:53;5.33;;;3.50;;
16407;SDS011;8313;49.894;8.084;2023-09-30T14:28:19;6.40;;;3.80;;
16407;SDS011;8313;49.894;8.084;2023-09-30T14:30:45;4.40;;;3.67;;
16407;SDS011;8313;49.894;8.084;2023-09-30T14:33:10;6.23;;;4.03;;
16407;SDS011;8313;49.894;8.084;2023-09-30T14:35:36;5.40;;;4.50;;
16407;SDS011;8313;49.894;8.084;2023-09-30T14:38:02;5.90;;;3.63;;
16407;SDS011;8313;49.894;8.084;2023-09-30T14:40:29;6.20;;;3.40;;
16407;SDS011;8313;49.894;8.084;2023-09-30T14:43:00;7.23;;;3.93;;
16407;SDS011;8313;49.894;8.084;2023-09-30T14:45:30;4.53;;;3.43;;
16407;SDS011;8313;49.894;8.084;2023-09-30T14:47:56;5.60;;;3.47;;
16407;SDS011;8313;49.894;8.084;2023-09-30T14:50:22;5.40;;;3.93;;
16407;SDS011;8313;49.894;8.084;2023-09-30T14:52:47;4.40;;;3.23;;
16407;SDS011;8313;49.894;8.084;2023-09-30T14:55:14;5.30;;;3.67;;
16407;SDS011;8313;49.894;8.084;2023-09-30T14:57:41;5.33;;;3.77;;
16407;SDS011;8313;49.894;8.084;2023-09-30T15:00:07;7.57;;;4.20;;
16407;SDS011;8313;49.894;8.084;2023-09-30T15:02:33;5.40;;;3.67;;
16407;SDS011;8313;49.894;8.084;2023-09-30T15:04:59;5.67;;;4.30;;
16407;SDS011;8313;49.894;8.084;2023-09-30T15:07:25;4.77;;;3.67;;
16407;SDS011;8313;49.894;8.084;2023-09-30T15:09:50;6.80;;;4.40;;
16407;SDS011;8313;49.894;8.084;2023-09-30T15:12:17;4.80;;;3.50;;
16407;SDS011;8313;49.894;8.084;2023-09-30T15:14:43;7.37;;;4.00;;
16407;SDS011;8313;49.894;8.084;2023-09-30T15:17:10;7.57;;;3.80;;
16407;SDS011;8313;49.894;8.084;2023-09-30T15:19:35;5.00;;;3.80;;
16407;SDS011;8313;49.894;8.084;2023-09-30T15:22:01;5.27;;;3.90;;
16407;SDS011;8313;49.894;8.084;2023-09-30T15:24:27;5.50;;;4.13;;
16407;SDS011;8313;49.894;8.084;2023-09-30T15:26:52;4.83;;;3.40;;
16407;SDS011;8313;49.894;8.084;2023-09-30T15:29:18;5.67;;;3.70;;
16407;SDS011;8313;49.894;8.084;2023-09-30T15:31:44;5.87;;;4.10;;